Wetterstation Vordersexau
Wetterdaten: Woche 03.07.23 - 09.07.23 (KW27)
Datum Zeit Temp. A. Feuchte A. Luftdruck Regen Wind Richtung Taupunkt Windchill Windben
03.07.2023 00:00 16,7 C 72 % 1010,2 hPa 0,0 l/m 2,5 km/h (1 Bft) NO 11,6 C 16,7 C 3,6 km/h (1 Bft)
03.07.2023 01:00 14,4 C 85 % 1010,7 hPa 0,0 l/m 0,0 km/h (0 Bft) N 11,9 C 14,4 C 2,5 km/h (1 Bft)
03.07.2023 02:00 14,1 C 85 % 1010,7 hPa 0,0 l/m 0,0 km/h (0 Bft) N 11,6 C 14,1 C 2,5 km/h (1 Bft)
03.07.2023 03:00 14,5 C 84 % 1010,5 hPa 0,0 l/m 0,0 km/h (0 Bft) N 11,8 C 14,5 C 2,5 km/h (1 Bft)
03.07.2023 04:00 14,5 C 86 % 1010,5 hPa 0,0 l/m 0,0 km/h (0 Bft) NO 12,2 C 14,5 C 0,0 km/h (0 Bft)
03.07.2023 05:00 15,1 C 82 % 1010,6 hPa 0,0 l/m 1,1 km/h (1 Bft) N 12,0 C 15,1 C 2,5 km/h (1 Bft)
03.07.2023 06:00 15,1 C 86 % 1010,5 hPa 0,0 l/m 0,0 km/h (0 Bft) NO 12,8 C 15,1 C 2,5 km/h (1 Bft)
03.07.2023 07:00 15,8 C 85 % 1010,6 hPa 0,0 l/m 1,1 km/h (1 Bft) W 13,3 C 15,8 C 2,5 km/h (1 Bft)
03.07.2023 08:00 17,6 C 73 % 1010,9 hPa 0,0 l/m 5,0 km/h (1 Bft) W 12,7 C 17,6 C 7,2 km/h (2 Bft)
03.07.2023 09:00 18,9 C 68 % 1011,3 hPa 0,0 l/m 6,1 km/h (2 Bft) W 12,9 C 18,9 C 7,2 km/h (2 Bft)
03.07.2023 10:00 20,3 C 64 % 1011,3 hPa 0,0 l/m 7,2 km/h (2 Bft) W 13,3 C 20,0 C 11,2 km/h (2 Bft)
03.07.2023 11:00 22,3 C 54 % 1011,3 hPa 0,0 l/m 9,7 km/h (2 Bft) W 12,5 C 21,3 C 18,4 km/h (3 Bft)
03.07.2023 12:00 23,0 C 53 % 1011,7 hPa 0,0 l/m 9,7 km/h (2 Bft) W 12,9 C 22,0 C 14,8 km/h (3 Bft)
03.07.2023 13:00 24,2 C 49 % 1011,7 hPa 0,0 l/m 11,2 km/h (2 Bft) W 12,8 C 23,0 C 18,4 km/h (3 Bft)
03.07.2023 14:00 23,1 C 49 % 1011,2 hPa 0,0 l/m 7,2 km/h (2 Bft) W-SW 11,8 C 22,8 C 9,7 km/h (2 Bft)
03.07.2023 15:00 23,5 C 47 % 1011,1 hPa 0,0 l/m 12,2 km/h (2 Bft) W-SW 11,5 C 22,0 C 17,3 km/h (3 Bft)
03.07.2023 16:00 25,5 C 45 % 1011,0 hPa 0,0 l/m 12,2 km/h (2 Bft) W-SW 12,7 C 24,3 C 20,9 km/h (4 Bft)
03.07.2023 17:00 24,7 C 45 % 1010,8 hPa 0,0 l/m 11,2 km/h (2 Bft) W-SW 12,0 C 23,6 C 14,8 km/h (3 Bft)
03.07.2023 18:00 26,1 C 43 % 1010,1 hPa 0,0 l/m 8,6 km/h (2 Bft) W 12,5 C 25,6 C 13,3 km/h (3 Bft)
03.07.2023 19:00 24,8 C 47 % 1009,9 hPa 0,0 l/m 9,7 km/h (2 Bft) W-SW 12,7 C 24,0 C 13,3 km/h (3 Bft)
03.07.2023 20:00 23,3 C 52 % 1010,1 hPa 0,0 l/m 7,2 km/h (2 Bft) W 12,9 C 23,1 C 9,7 km/h (2 Bft)
03.07.2023 21:00 22,4 C 55 % 1010,1 hPa 0,0 l/m 9,7 km/h (2 Bft) W 12,9 C 21,4 C 14,8 km/h (3 Bft)
03.07.2023 22:00 21,5 C 60 % 1010,3 hPa 0,0 l/m 5,0 km/h (1 Bft) W 13,4 C 21,5 C 7,2 km/h (2 Bft)
03.07.2023 23:00 20,6 C 66 % 1011,1 hPa 0,0 l/m 2,5 km/h (1 Bft) NW 14,0 C 20,6 C 3,6 km/h (1 Bft)
04.07.2023 00:00 17,2 C 90 % 1012,0 hPa 0,6 l/m 1,1 km/h (1 Bft) NW 15,5 C 17,2 C 2,5 km/h (1 Bft)
04.07.2023 01:00 16,6 C 96 % 1011,4 hPa 0,3 l/m 0,0 km/h (0 Bft) O 16,0 C 16,6 C 2,5 km/h (1 Bft)
04.07.2023 02:00 15,5 C 97 % 1011,4 hPa 0,0 l/m 1,1 km/h (1 Bft) O 15,0 C 15,5 C 2,5 km/h (1 Bft)
04.07.2023 03:00 15,1 C 98 % 1011,4 hPa 0,0 l/m 1,1 km/h (1 Bft) N 14,8 C 15,1 C 2,5 km/h (1 Bft)
04.07.2023 04:00 15,7 C 98 % 1011,4 hPa 0,0 l/m 0,0 km/h (0 Bft) O-NO 15,4 C 15,7 C 2,5 km/h (1 Bft)
04.07.2023 05:00 16,0 C 98 % 1011,6 hPa 0,6 l/m 1,1 km/h (1 Bft) N 15,7 C 16,0 C 2,5 km/h (1 Bft)
04.07.2023 06:00 15,7 C 99 % 1011,7 hPa 0,0 l/m 0,0 km/h (0 Bft) N 15,5 C 15,7 C 0,0 km/h (0 Bft)
04.07.2023 07:00 15,6 C 99 % 1011,7 hPa 0,0 l/m 0,0 km/h (0 Bft) O 15,4 C 15,6 C 0,0 km/h (0 Bft)
04.07.2023 08:00 16,5 C 99 % 1011,9 hPa 0,0 l/m 2,5 km/h (1 Bft) SO 16,3 C 16,5 C 3,6 km/h (1 Bft)
04.07.2023 09:00 17,3 C 96 % 1012,0 hPa 0,0 l/m 1,1 km/h (1 Bft) W-SW 16,7 C 17,3 C 2,5 km/h (1 Bft)
04.07.2023 10:00 19,3 C 88 % 1012,1 hPa 0,0 l/m 2,5 km/h (1 Bft) W-SW 17,3 C 19,3 C 3,6 km/h (1 Bft)
04.07.2023 11:00 20,8 C 83 % 1012,0 hPa 0,0 l/m 3,6 km/h (1 Bft) SW 17,8 C 20,8 C 7,2 km/h (2 Bft)
04.07.2023 12:00 22,3 C 70 % 1011,9 hPa 0,0 l/m 7,2 km/h (2 Bft) W-SW 16,6 C 22,0 C 11,2 km/h (2 Bft)
04.07.2023 13:00 23,9 C 62 % 1011,9 hPa 0,0 l/m 11,2 km/h (2 Bft) W-SW 16,2 C 22,7 C 17,3 km/h (3 Bft)
04.07.2023 14:00 24,9 C 54 % 1011,1 hPa 0,0 l/m 8,6 km/h (2 Bft) W-SW 14,9 C 24,4 C 14,8 km/h (3 Bft)
04.07.2023 15:00 24,9 C 55 % 1010,8 hPa 0,0 l/m 3,6 km/h (1 Bft) W 15,2 C 24,9 C 7,2 km/h (2 Bft)
04.07.2023 16:00 25,0 C 56 % 1010,4 hPa 0,0 l/m 7,2 km/h (2 Bft) W 15,6 C 24,8 C 9,7 km/h (2 Bft)
04.07.2023 17:00 26,3 C 52 % 1010,0 hPa 0,0 l/m 5,0 km/h (1 Bft) W-NW 15,6 C 26,3 C 7,2 km/h (2 Bft)
04.07.2023 18:00 25,1 C 51 % 1009,7 hPa 0,0 l/m 3,6 km/h (1 Bft) NW 14,2 C 25,1 C 7,2 km/h (2 Bft)
04.07.2023 19:00 26,5 C 53 % 1009,5 hPa 0,0 l/m 3,6 km/h (1 Bft) N 16,1 C 26,5 C 7,2 km/h (2 Bft)
04.07.2023 20:00 23,0 C 67 % 1009,0 hPa 0,0 l/m 1,1 km/h (1 Bft) N 16,5 C 23,0 C 2,5 km/h (1 Bft)
04.07.2023 21:00 23,1 C 61 % 1008,8 hPa 0,0 l/m 0,0 km/h (0 Bft) NO 15,2 C 23,1 C 0,0 km/h (0 Bft)
04.07.2023 22:00 20,4 C 76 % 1008,7 hPa 0,0 l/m 1,1 km/h (1 Bft) NO 16,0 C 20,4 C 2,5 km/h (1 Bft)
04.07.2023 23:00 18,3 C 83 % 1009,1 hPa 0,0 l/m 1,1 km/h (1 Bft) N 15,4 C 18,3 C 2,5 km/h (1 Bft)
05.07.2023 00:00 17,3 C 84 % 1008,7 hPa 0,0 l/m 0,0 km/h (0 Bft) N 14,6 C 17,3 C 2,5 km/h (1 Bft)
05.07.2023 01:00 16,8 C 85 % 1008,3 hPa 0,0 l/m 0,0 km/h (0 Bft) O-SO 14,3 C 16,8 C 2,5 km/h (1 Bft)
05.07.2023 02:00 16,8 C 85 % 1008,2 hPa 0,0 l/m 1,1 km/h (1 Bft) O-SO 14,3 C 16,8 C 2,5 km/h (1 Bft)
05.07.2023 03:00 16,0 C 92 % 1008,5 hPa 0,3 l/m 3,6 km/h (1 Bft) N 14,7 C 16,0 C 6,1 km/h (2 Bft)
05.07.2023 04:00 16,8 C 94 % 1008,7 hPa 0,0 l/m 0,0 km/h (0 Bft) N 15,8 C 16,8 C 2,5 km/h (1 Bft)
05.07.2023 05:00 17,0 C 94 % 1008,7 hPa 0,0 l/m 0,0 km/h (0 Bft) N 16,0 C 17,0 C 0,0 km/h (0 Bft)
05.07.2023 06:00 16,3 C 97 % 1008,5 hPa 0,0 l/m 0,0 km/h (0 Bft) S-SW 15,8 C 16,3 C 0,0 km/h (0 Bft)
05.07.2023 07:00 19,0 C 81 % 1008,9 hPa 0,0 l/m 8,6 km/h (2 Bft) SW 15,7 C 18,1 C 11,2 km/h (2 Bft)
05.07.2023 08:00 19,1 C 81 % 1009,3 hPa 0,0 l/m 13,3 km/h (3 Bft) W-SW 15,8 C 16,6 C 20,9 km/h (4 Bft)
05.07.2023 09:00 18,0 C 87 % 1009,9 hPa 0,0 l/m 13,3 km/h (3 Bft) W 15,8 C 15,3 C 18,4 km/h (3 Bft)
05.07.2023 10:00 16,8 C 94 % 1010,9 hPa 0,9 l/m 7,2 km/h (2 Bft) W-SW 15,8 C 16,4 C 11,2 km/h (2 Bft)
05.07.2023 11:00 18,5 C 86 % 1011,2 hPa 0,0 l/m 9,7 km/h (2 Bft) W-SW 16,1 C 17,1 C 13,3 km/h (3 Bft)
05.07.2023 12:00 19,9 C 77 % 1011,8 hPa 0,0 l/m 11,2 km/h (2 Bft) W 15,7 C 18,2 C 17,3 km/h (3 Bft)
05.07.2023 13:00 21,9 C 62 % 1011,9 hPa 0,0 l/m 12,2 km/h (2 Bft) SW 14,3 C 20,2 C 17,3 km/h (3 Bft)
05.07.2023 14:00 22,8 C 44 % 1012,1 hPa 0,0 l/m 11,2 km/h (2 Bft) W-SW 9,9 C 21,4 C 14,8 km/h (3 Bft)
05.07.2023 15:00 23,8 C 43 % 1012,1 hPa 0,0 l/m 18,4 km/h (3 Bft) W 10,5 C 21,3 C 28,1 km/h (4 Bft)
05.07.2023 16:00 23,7 C 43 % 1012,1 hPa 0,0 l/m 13,3 km/h (3 Bft) W 10,4 C 22,0 C 20,9 km/h (4 Bft)
05.07.2023 17:00 22,9 C 42 % 1011,7 hPa 0,0 l/m 15,8 km/h (3 Bft) W-NW 9,3 C 20,6 C 22,0 km/h (4 Bft)
05.07.2023 18:00 25,1 C 39 % 1011,5 hPa 0,0 l/m 6,1 km/h (2 Bft) S-SW 10,2 C 25,1 C 11,2 km/h (2 Bft)
05.07.2023 19:00 24,2 C 39 % 1011,7 hPa 0,0 l/m 8,6 km/h (2 Bft) SW 9,4 C 23,6 C 14,8 km/h (3 Bft)
05.07.2023 20:00 22,9 C 41 % 1011,8 hPa 0,0 l/m 8,6 km/h (2 Bft) W-SW 8,9 C 22,2 C 13,3 km/h (3 Bft)
05.07.2023 21:00 21,3 C 48 % 1011,8 hPa 0,0 l/m 3,6 km/h (1 Bft) S-SW 9,8 C 21,3 C 6,1 km/h (2 Bft)
05.07.2023 22:00 18,8 C 58 % 1012,1 hPa 0,0 l/m 1,1 km/h (1 Bft) O-NO 10,4 C 18,8 C 2,5 km/h (1 Bft)
05.07.2023 23:00 16,8 C 69 % 1012,7 hPa 0,0 l/m 2,5 km/h (1 Bft) N 11,1 C 16,8 C 6,1 km/h (2 Bft)
06.07.2023 00:00 15,9 C 75 % 1013,2 hPa 0,0 l/m 0,0 km/h (0 Bft) O 11,5 C 15,9 C 2,5 km/h (1 Bft)
06.07.2023 01:00 15,9 C 78 % 1013,7 hPa 0,0 l/m 1,1 km/h (1 Bft) O 12,1 C 15,9 C 2,5 km/h (1 Bft)
06.07.2023 02:00 14,7 C 78 % 1013,8 hPa 0,0 l/m 1,1 km/h (1 Bft) N 10,9 C 14,7 C 3,6 km/h (1 Bft)
06.07.2023 03:00 13,8 C 82 % 1013,7 hPa 0,0 l/m 0,0 km/h (0 Bft) N 10,8 C 13,8 C 0,0 km/h (0 Bft)
06.07.2023 04:00 12,6 C 87 % 1013,6 hPa 0,0 l/m 0,0 km/h (0 Bft) N 10,5 C 12,6 C 2,5 km/h (1 Bft)
06.07.2023 05:00 11,9 C 89 % 1013,6 hPa 0,0 l/m 0,0 km/h (0 Bft) N 10,1 C 11,9 C 0,0 km/h (0 Bft)
06.07.2023 06:00 11,3 C 89 % 1013,5 hPa 0,0 l/m 0,0 km/h (0 Bft) N 9,6 C 11,3 C 0,0 km/h (0 Bft)
06.07.2023 07:00 11,6 C 88 % 1013,7 hPa 0,0 l/m 0,0 km/h (0 Bft) N 9,7 C 11,6 C 0,0 km/h (0 Bft)
06.07.2023 08:00 13,3 C 83 % 1014,0 hPa 0,0 l/m 0,0 km/h (0 Bft) N 10,5 C 13,3 C 2,5 km/h (1 Bft)
06.07.2023 09:00 15,5 C 76 % 1014,3 hPa 0,0 l/m 0,0 km/h (0 Bft) N-NO 11,3 C 15,5 C 2,5 km/h (1 Bft)
06.07.2023 10:00 18,2 C 66 % 1014,2 hPa 0,0 l/m 2,5 km/h (1 Bft) W 11,7 C 18,2 C 3,6 km/h (1 Bft)
06.07.2023 11:00 21,7 C 55 % 1013,9 hPa 0,0 l/m 3,6 km/h (1 Bft) W-SW 12,3 C 21,7 C 6,1 km/h (2 Bft)
06.07.2023 12:00 23,4 C 48 % 1013,9 hPa 0,0 l/m 1,1 km/h (1 Bft) S-SW 11,8 C 23,4 C 3,6 km/h (1 Bft)
06.07.2023 13:00 24,9 C 39 % 1013,8 hPa 0,0 l/m 6,1 km/h (2 Bft) NW 10,0 C 24,9 C 9,7 km/h (2 Bft)
06.07.2023 14:00 23,3 C 43 % 1013,9 hPa 0,0 l/m 3,6 km/h (1 Bft) NO 10,0 C 23,3 C 6,1 km/h (2 Bft)
06.07.2023 15:00 25,4 C 39 % 1013,4 hPa 0,0 l/m 5,0 km/h (1 Bft) S 10,4 C 25,4 C 7,2 km/h (2 Bft)
06.07.2023 16:00 26,6 C 34 % 1012,9 hPa 0,0 l/m 3,6 km/h (1 Bft) W 9,4 C 26,6 C 7,2 km/h (2 Bft)
06.07.2023 17:00 27,0 C 33 % 1012,8 hPa 0,0 l/m 5,0 km/h (1 Bft) N-NO 9,3 C 27,0 C 6,1 km/h (2 Bft)
06.07.2023 18:00 26,4 C 33 % 1012,7 hPa 0,0 l/m 3,6 km/h (1 Bft) W 8,8 C 26,4 C 6,1 km/h (2 Bft)
06.07.2023 19:00 27,5 C 33 % 1012,5 hPa 0,0 l/m 3,6 km/h (1 Bft) N 9,8 C 27,5 C 7,2 km/h (2 Bft)
06.07.2023 20:00 25,9 C 35 % 1012,4 hPa 0,0 l/m 0,0 km/h (0 Bft) N 9,3 C 25,9 C 2,5 km/h (1 Bft)
06.07.2023 21:00 24,9 C 39 % 1012,6 hPa 0,0 l/m 0,0 km/h (0 Bft) N-NO 10,0 C 24,9 C 2,5 km/h (1 Bft)
06.07.2023 22:00 19,8 C 60 % 1012,9 hPa 0,0 l/m 1,1 km/h (1 Bft) N-NO 11,8 C 19,8 C 2,5 km/h (1 Bft)
06.07.2023 23:00 18,0 C 64 % 1013,4 hPa 0,0 l/m 1,1 km/h (1 Bft) O-SO 11,1 C 18,0 C 2,5 km/h (1 Bft)
07.07.2023 00:00 16,7 C 69 % 1013,9 hPa 0,0 l/m 3,6 km/h (1 Bft) O-SO 11,0 C 16,7 C 3,6 km/h (1 Bft)
07.07.2023 01:00 15,9 C 72 % 1013,9 hPa 0,0 l/m 1,1 km/h (1 Bft) O-SO 10,9 C 15,9 C 2,5 km/h (1 Bft)
07.07.2023 02:00 16,2 C 68 % 1013,8 hPa 0,0 l/m 6,1 km/h (2 Bft) O-NO 10,3 C 16,2 C 9,7 km/h (2 Bft)
07.07.2023 03:00 15,9 C 69 % 1013,9 hPa 0,0 l/m 5,0 km/h (1 Bft) O 10,2 C 15,9 C 7,2 km/h (2 Bft)
07.07.2023 04:00 14,9 C 72 % 1014,1 hPa 0,0 l/m 1,1 km/h (1 Bft) N 9,9 C 14,9 C 2,5 km/h (1 Bft)
07.07.2023 05:00 13,3 C 79 % 1014,2 hPa 0,0 l/m 0,0 km/h (0 Bft) O-NO 9,7 C 13,3 C 0,0 km/h (0 Bft)
07.07.2023 06:00 12,3 C 85 % 1014,4 hPa 0,0 l/m 2,5 km/h (1 Bft) N 9,9 C 12,3 C 3,6 km/h (1 Bft)
07.07.2023 07:00 12,3 C 86 % 1014,6 hPa 0,0 l/m 0,0 km/h (0 Bft) N 10,0 C 12,3 C 2,5 km/h (1 Bft)
07.07.2023 08:00 14,9 C 79 % 1014,9 hPa 0,0 l/m 0,0 km/h (0 Bft) O-NO 11,3 C 14,9 C 2,5 km/h (1 Bft)
07.07.2023 09:00 18,1 C 65 % 1015,2 hPa 0,0 l/m 1,1 km/h (1 Bft) W-NW 11,4 C 18,1 C 3,6 km/h (1 Bft)
07.07.2023 10:00 21,0 C 59 % 1014,8 hPa 0,0 l/m 3,6 km/h (1 Bft) W 12,7 C 21,0 C 6,1 km/h (2 Bft)
07.07.2023 11:00 23,6 C 53 % 1015,0 hPa 0,0 l/m 5,0 km/h (1 Bft) NO 13,4 C 23,6 C 6,1 km/h (2 Bft)
07.07.2023 12:00 25,1 C 49 % 1014,7 hPa 0,0 l/m 3,6 km/h (1 Bft) N 13,6 C 25,1 C 6,1 km/h (2 Bft)
07.07.2023 13:00 27,9 C 46 % 1014,3 hPa 0,0 l/m 3,6 km/h (1 Bft) W 15,2 C 27,9 C 6,1 km/h (2 Bft)
07.07.2023 14:00 29,6 C 43 % 1014,1 hPa 0,0 l/m 1,1 km/h (1 Bft) W 15,7 C 29,6 C 3,6 km/h (1 Bft)
07.07.2023 15:00 31,2 C 37 % 1013,5 hPa 0,0 l/m 2,5 km/h (1 Bft) W-SW 14,8 C 31,2 C 6,1 km/h (2 Bft)
07.07.2023 16:00 32,4 C 34 % 1013,0 hPa 0,0 l/m 5,0 km/h (1 Bft) NW 14,5 C 32,4 C 9,7 km/h (2 Bft)
07.07.2023 17:00 33,3 C 32 % 1012,5 hPa 0,0 l/m 2,5 km/h (1 Bft) W 14,3 C 33,3 C 6,1 km/h (2 Bft)
07.07.2023 18:00 34,0 C 30 % 1012,2 hPa 0,0 l/m 1,1 km/h (1 Bft) N-NO 13,9 C 34,0 C 3,6 km/h (1 Bft)
07.07.2023 19:00 32,7 C 32 % 1011,5 hPa 0,0 l/m 1,1 km/h (1 Bft) N-NO 13,8 C 32,7 C 3,6 km/h (1 Bft)
07.07.2023 20:00 31,1 C 34 % 1011,2 hPa 0,0 l/m 3,6 km/h (1 Bft) N 13,4 C 31,1 C 3,6 km/h (1 Bft)
07.07.2023 21:00 28,6 C 47 % 1011,1 hPa 0,0 l/m 0,0 km/h (0 Bft) N-NO 16,2 C 28,6 C 2,5 km/h (1 Bft)
07.07.2023 22:00 25,0 C 56 % 1011,4 hPa 0,0 l/m 3,6 km/h (1 Bft) O 15,6 C 25,0 C 3,6 km/h (1 Bft)
07.07.2023 23:00 22,5 C 62 % 1011,6 hPa 0,0 l/m 1,1 km/h (1 Bft) O 14,8 C 22,5 C 2,5 km/h (1 Bft)
08.07.2023 00:00 20,3 C 71 % 1011,7 hPa 0,0 l/m 1,1 km/h (1 Bft) O 14,9 C 20,3 C 2,5 km/h (1 Bft)
08.07.2023 01:00 18,9 C 74 % 1011,6 hPa 0,0 l/m 1,1 km/h (1 Bft) N 14,2 C 18,9 C 3,6 km/h (1 Bft)
08.07.2023 02:00 18,1 C 76 % 1011,6 hPa 0,0 l/m 0,0 km/h (0 Bft) O-NO 13,8 C 18,1 C 2,5 km/h (1 Bft)
08.07.2023 03:00 18,3 C 72 % 1011,4 hPa 0,0 l/m 1,1 km/h (1 Bft) S-SO 13,2 C 18,3 C 3,6 km/h (1 Bft)
08.07.2023 04:00 16,9 C 79 % 1011,5 hPa 0,0 l/m 1,1 km/h (1 Bft) N 13,2 C 16,9 C 2,5 km/h (1 Bft)
08.07.2023 05:00 17,4 C 75 % 1011,6 hPa 0,0 l/m 2,5 km/h (1 Bft) NO 12,9 C 17,4 C 3,6 km/h (1 Bft)
08.07.2023 06:00 18,5 C 73 % 1013,4 hPa 0,0 l/m 1,1 km/h (1 Bft) S-SW 13,6 C 18,5 C 2,5 km/h (1 Bft)
08.07.2023 07:00 21,7 C 70 % 1014,9 hPa 0,0 l/m 12,2 km/h (2 Bft) O-SO 16,0 C 19,9 C 17,3 km/h (3 Bft)
08.07.2023 08:00 18,9 C 83 % 1014,4 hPa 0,6 l/m 8,6 km/h (2 Bft) SO 15,9 C 18,0 C 17,3 km/h (3 Bft)
08.07.2023 09:00 21,1 C 67 % 1013,5 hPa 0,0 l/m 7,2 km/h (2 Bft) NW 14,7 C 20,8 C 13,3 km/h (3 Bft)
08.07.2023 10:00 20,9 C 74 % 1014,4 hPa 0,0 l/m 3,6 km/h (1 Bft) SW 16,1 C 20,9 C 9,7 km/h (2 Bft)
08.07.2023 11:00 23,8 C 65 % 1014,6 hPa 0,0 l/m 2,5 km/h (1 Bft) O-SO 16,8 C 23,8 C 6,1 km/h (2 Bft)
08.07.2023 12:00 24,6 C 64 % 1014,4 hPa 0,0 l/m 3,6 km/h (1 Bft) W 17,3 C 24,6 C 6,1 km/h (2 Bft)
08.07.2023 13:00 28,7 C 48 % 1014,1 hPa 0,0 l/m 2,5 km/h (1 Bft) W 16,6 C 28,7 C 6,1 km/h (2 Bft)
08.07.2023 14:00 30,5 C 46 % 1014,2 hPa 0,0 l/m 5,0 km/h (1 Bft) W-SW 17,5 C 30,5 C 7,2 km/h (2 Bft)
08.07.2023 15:00 31,0 C 41 % 1013,6 hPa 0,0 l/m 9,7 km/h (2 Bft) W 16,2 C 30,8 C 14,8 km/h (3 Bft)
08.07.2023 16:00 32,4 C 37 % 1013,4 hPa 0,0 l/m 8,6 km/h (2 Bft) W 15,8 C 32,4 C 11,2 km/h (2 Bft)
08.07.2023 17:00 33,1 C 35 % 1013,3 hPa 0,0 l/m 5,0 km/h (1 Bft) W 15,6 C 33,1 C 7,2 km/h (2 Bft)
08.07.2023 18:00 32,6 C 33 % 1013,3 hPa 0,0 l/m 7,2 km/h (2 Bft) W 14,2 C 32,6 C 13,3 km/h (3 Bft)
08.07.2023 19:00 32,6 C 34 % 1013,0 hPa 0,0 l/m 6,1 km/h (2 Bft) W 14,7 C 32,6 C 9,7 km/h (2 Bft)
08.07.2023 20:00 31,3 C 36 % 1012,9 hPa 0,0 l/m 3,6 km/h (1 Bft) W 14,4 C 31,3 C 7,2 km/h (2 Bft)
08.07.2023 21:00 29,4 C 43 % 1013,3 hPa 0,0 l/m 1,1 km/h (1 Bft) W-NW 15,5 C 29,4 C 2,5 km/h (1 Bft)
08.07.2023 22:00 25,7 C 55 % 1013,8 hPa 0,0 l/m 1,1 km/h (1 Bft) N 16,0 C 25,7 C 2,5 km/h (1 Bft)
08.07.2023 23:00 23,1 C 63 % 1014,4 hPa 0,0 l/m 0,0 km/h (0 Bft) N 15,7 C 23,1 C 0,0 km/h (0 Bft)
09.07.2023 00:00 21,9 C 68 % 1014,7 hPa 0,0 l/m 0,0 km/h (0 Bft) O-SO 15,7 C 21,9 C 0,0 km/h (0 Bft)
09.07.2023 01:00 21,0 C 70 % 1015,0 hPa 0,0 l/m 1,1 km/h (1 Bft) N 15,3 C 21,0 C 3,6 km/h (1 Bft)
09.07.2023 02:00 20,3 C 72 % 1015,1 hPa 0,0 l/m 0,0 km/h (0 Bft) N 15,1 C 20,3 C 2,5 km/h (1 Bft)
09.07.2023 03:00 19,7 C 74 % 1015,2 hPa 0,0 l/m 0,0 km/h (0 Bft) SO 14,9 C 19,7 C 2,5 km/h (1 Bft)
09.07.2023 04:00 19,3 C 74 % 1015,2 hPa 0,0 l/m 2,5 km/h (1 Bft) S-SO 14,5 C 19,3 C 6,1 km/h (2 Bft)
09.07.2023 05:00 18,7 C 76 % 1015,2 hPa 0,0 l/m 1,1 km/h (1 Bft) N 14,4 C 18,7 C 2,5 km/h (1 Bft)
09.07.2023 06:00 18,0 C 78 % 1015,4 hPa 0,0 l/m 0,0 km/h (0 Bft) N 14,1 C 18,0 C 2,5 km/h (1 Bft)
09.07.2023 07:00 18,2 C 78 % 1015,6 hPa 0,0 l/m 0,0 km/h (0 Bft) O-SO 14,3 C 18,2 C 2,5 km/h (1 Bft)
09.07.2023 08:00 20,1 C 71 % 1015,8 hPa 0,0 l/m 3,6 km/h (1 Bft) O-SO 14,7 C 20,1 C 6,1 km/h (2 Bft)
09.07.2023 09:00 23,0 C 64 % 1015,9 hPa 0,0 l/m 1,1 km/h (1 Bft) W 15,8 C 23,0 C 2,5 km/h (1 Bft)
09.07.2023 10:00 26,2 C 56 % 1015,4 hPa 0,0 l/m 1,1 km/h (1 Bft) W 16,7 C 26,2 C 3,6 km/h (1 Bft)
09.07.2023 11:00 29,2 C 50 % 1015,4 hPa 0,0 l/m 5,0 km/h (1 Bft) SW 17,7 C 29,2 C 7,2 km/h (2 Bft)
09.07.2023 12:00 31,8 C 46 % 1015,1 hPa 0,0 l/m 3,6 km/h (1 Bft) NW 18,7 C 31,8 C 6,1 km/h (2 Bft)
09.07.2023 13:00 33,4 C 40 % 1014,7 hPa 0,0 l/m 1,1 km/h (1 Bft) W-NW 17,9 C 33,4 C 3,6 km/h (1 Bft)
09.07.2023 14:00 34,9 C 38 % 1014,2 hPa 0,0 l/m 7,2 km/h (2 Bft) W-SW 18,4 C 34,9 C 11,2 km/h (2 Bft)
09.07.2023 15:00 36,2 C 35 % 1013,8 hPa 0,0 l/m 3,6 km/h (1 Bft) SW 18,3 C 36,2 C 6,1 km/h (2 Bft)
09.07.2023 16:00 36,3 C 37 % 1013,4 hPa 0,0 l/m 6,1 km/h (2 Bft) W 19,2 C 36,3 C 9,7 km/h (2 Bft)
09.07.2023 17:00 37,3 C 35 % 1012,7 hPa 0,0 l/m 5,0 km/h (1 Bft) SW 19,2 C 37,3 C 11,2 km/h (2 Bft)
09.07.2023 18:00 36,7 C 34 % 1012,5 hPa 0,0 l/m 3,6 km/h (1 Bft) W-NW 18,2 C 36,7 C 6,1 km/h (2 Bft)
09.07.2023 19:00 35,7 C 35 % 1012,5 hPa 0,0 l/m 3,6 km/h (1 Bft) N 17,8 C 35,7 C 7,2 km/h (2 Bft)
09.07.2023 20:00 34,2 C 40 % 1012,4 hPa 0,0 l/m 0,0 km/h (0 Bft) N 18,6 C 34,2 C 0,0 km/h (0 Bft)
09.07.2023 21:00 32,3 C 47 % 1012,4 hPa 0,0 l/m 0,0 km/h (0 Bft) N 19,5 C 32,3 C 0,0 km/h (0 Bft)
09.07.2023 22:00 29,2 C 54 % 1012,6 hPa 0,0 l/m 0,0 km/h (0 Bft) N 18,9 C 29,2 C 2,5 km/h (1 Bft)
09.07.2023 23:00 25,9 C 58 % 1013,1 hPa 0,0 l/m 0,0 km/h (0 Bft) N 17,0 C 25,9 C 0,0 km/h (0 Bft)
Min-Datum _ 06.07.23 07.07.23 05.07.23 - 03.07.23 - 06.07.23 06.07.23 03.07.23
_ Min-Zeit 06:21 18:21 02:21 - 01:21 - 18:21 06:21 04:21
Minimum _ 11,3 C 30 % 1008,2 hPa - 0,0 km/h (0 Bft) - 8,8 C 11,3 C 0,0 km/h (0 Bft)
Max-Datum _ 09.07.23 04.07.23 09.07.23 05.07.23 05.07.23 - 09.07.23 09.07.23 05.07.23
_ Max-Zeit 17:21 06:21 09:21 10:21 15:21 - 21:21 17:21 15:21
Maximum _ 37,3 C 99 % 1015,9 hPa 0,9 l/m 18,4 km/h
W (3 Bft)
- 19,5 C 37,3 C 28,1 km/h
W (4 Bft)
Durchschnitt _ 22,1 C 63 % 1012,4 hPa #3,3 l/m 3,7 km/h (1 Bft) W 13,8 C 21,9 C 6,4 km/h (2 Bft)
www.sexauwetter.de